sensor_id;sensor_type;location;lat;lon;timestamp;P1;durP1;ratioP1;P2;durP2;ratioP2
73100;SDS011;61288;53.446;-2.266;2024-01-30T00:01:24;29.70;;;9.88;;
73100;SDS011;61288;53.446;-2.266;2024-01-30T00:03:50;32.70;;;10.40;;
73100;SDS011;61288;53.446;-2.266;2024-01-30T00:06:18;28.95;;;9.65;;
73100;SDS011;61288;53.446;-2.266;2024-01-30T00:08:46;28.02;;;10.02;;
73100;SDS011;61288;53.446;-2.266;2024-01-30T00:11:14;32.42;;;10.13;;
73100;SDS011;61288;53.446;-2.266;2024-01-30T00:13:43;31.70;;;10.15;;
73100;SDS011;61288;53.446;-2.266;2024-01-30T00:16:19;29.25;;;9.30;;
73100;SDS011;61288;53.446;-2.266;2024-01-30T00:18:45;31.45;;;9.75;;
73100;SDS011;61288;53.446;-2.266;2024-01-30T00:21:11;31.27;;;9.73;;
73100;SDS011;61288;53.446;-2.266;2024-01-30T00:23:37;30.30;;;10.00;;
73100;SDS011;61288;53.446;-2.266;2024-01-30T00:26:02;29.25;;;11.05;;
73100;SDS011;61288;53.446;-2.266;2024-01-30T00:28:28;34.45;;;12.02;;
73100;SDS011;61288;53.446;-2.266;2024-01-30T00:33:22;28.58;;;11.10;;
73100;SDS011;61288;53.446;-2.266;2024-01-30T00:35:47;24.08;;;8.32;;
73100;SDS011;61288;53.446;-2.266;2024-01-30T00:38:13;16.77;;;6.45;;
73100;SDS011;61288;53.446;-2.266;2024-01-30T00:40:38;14.85;;;5.50;;
73100;SDS011;61288;53.446;-2.266;2024-01-30T00:43:06;15.25;;;5.18;;
73100;SDS011;61288;53.446;-2.266;2024-01-30T00:45:31;13.93;;;5.00;;
73100;SDS011;61288;53.446;-2.266;2024-01-30T00:47:57;15.77;;;5.25;;
73100;SDS011;61288;53.446;-2.266;2024-01-30T00:50:22;13.40;;;5.07;;
73100;SDS011;61288;53.446;-2.266;2024-01-30T00:52:48;14.20;;;5.18;;
73100;SDS011;61288;53.446;-2.266;2024-01-30T00:55:14;14.63;;;5.15;;
73100;SDS011;61288;53.446;-2.266;2024-01-30T00:57:40;14.82;;;5.18;;
73100;SDS011;61288;53.446;-2.266;2024-01-30T01:00:07;13.05;;;5.30;;
73100;SDS011;61288;53.446;-2.266;2024-01-30T01:02:37;12.30;;;4.68;;
73100;SDS011;61288;53.446;-2.266;2024-01-30T01:05:04;13.07;;;4.85;;
73100;SDS011;61288;53.446;-2.266;2024-01-30T01:07:30;12.90;;;4.95;;
73100;SDS011;61288;53.446;-2.266;2024-01-30T01:09:55;11.90;;;4.75;;
73100;SDS011;61288;53.446;-2.266;2024-01-30T01:12:21;12.73;;;5.05;;
73100;SDS011;61288;53.446;-2.266;2024-01-30T01:14:46;11.27;;;4.35;;
73100;SDS011;61288;53.446;-2.266;2024-01-30T01:17:12;11.23;;;4.28;;
73100;SDS011;61288;53.446;-2.266;2024-01-30T01:19:37;12.80;;;4.25;;
73100;SDS011;61288;53.446;-2.266;2024-01-30T01:22:03;12.55;;;4.18;;
73100;SDS011;61288;53.446;-2.266;2024-01-30T01:24:30;10.85;;;4.13;;
73100;SDS011;61288;53.446;-2.266;2024-01-30T01:26:58;12.25;;;4.10;;
73100;SDS011;61288;53.446;-2.266;2024-01-30T01:29:24;10.00;;;4.03;;
73100;SDS011;61288;53.446;-2.266;2024-01-30T01:31:56;11.10;;;4.30;;
73100;SDS011;61288;53.446;-2.266;2024-01-30T01:34:22;13.75;;;4.57;;
73100;SDS011;61288;53.446;-2.266;2024-01-30T01:36:49;13.32;;;4.38;;
73100;SDS011;61288;53.446;-2.266;2024-01-30T01:39:15;13.27;;;5.15;;
73100;SDS011;61288;53.446;-2.266;2024-01-30T01:41:42;11.98;;;4.40;;
73100;SDS011;61288;53.446;-2.266;2024-01-30T01:44:08;12.57;;;4.38;;
73100;SDS011;61288;53.446;-2.266;2024-01-30T01:46:34;13.73;;;5.35;;
73100;SDS011;61288;53.446;-2.266;2024-01-30T01:49:00;11.65;;;4.40;;
73100;SDS011;61288;53.446;-2.266;2024-01-30T01:51:28;12.95;;;4.60;;
73100;SDS011;61288;53.446;-2.266;2024-01-30T01:53:56;14.07;;;5.03;;
73100;SDS011;61288;53.446;-2.266;2024-01-30T01:56:24;12.57;;;4.53;;
73100;SDS011;61288;53.446;-2.266;2024-01-30T01:58:51;13.75;;;4.60;;
73100;SDS011;61288;53.446;-2.266;2024-01-30T02:01:20;10.15;;;4.07;;
73100;SDS011;61288;53.446;-2.266;2024-01-30T02:03:46;10.88;;;4.30;;
73100;SDS011;61288;53.446;-2.266;2024-01-30T02:06:20;10.60;;;3.90;;
73100;SDS011;61288;53.446;-2.266;2024-01-30T02:08:46;10.63;;;4.10;;
73100;SDS011;61288;53.446;-2.266;2024-01-30T02:11:14;11.05;;;4.18;;
73100;SDS011;61288;53.446;-2.266;2024-01-30T02:13:42;13.00;;;4.80;;
73100;SDS011;61288;53.446;-2.266;2024-01-30T02:16:07;14.27;;;5.32;;
73100;SDS011;61288;53.446;-2.266;2024-01-30T02:18:33;13.35;;;4.80;;
73100;SDS011;61288;53.446;-2.266;2024-01-30T02:20:58;13.90;;;5.00;;
73100;SDS011;61288;53.446;-2.266;2024-01-30T02:23:27;10.82;;;4.32;;
73100;SDS011;61288;53.446;-2.266;2024-01-30T02:25:52;12.48;;;4.22;;
73100;SDS011;61288;53.446;-2.266;2024-01-30T02:28:19;11.93;;;4.68;;
73100;SDS011;61288;53.446;-2.266;2024-01-30T02:30:45;11.52;;;4.07;;
73100;SDS011;61288;53.446;-2.266;2024-01-30T02:33:11;11.98;;;4.15;;
73100;SDS011;61288;53.446;-2.266;2024-01-30T02:35:37;11.07;;;3.72;;
73100;SDS011;61288;53.446;-2.266;2024-01-30T02:38:03;11.80;;;3.92;;
73100;SDS011;61288;53.446;-2.266;2024-01-30T02:40:29;10.07;;;3.70;;
73100;SDS011;61288;53.446;-2.266;2024-01-30T02:42:55;11.18;;;3.13;;
73100;SDS011;61288;53.446;-2.266;2024-01-30T02:45:22;9.30;;;3.00;;
73100;SDS011;61288;53.446;-2.266;2024-01-30T02:47:47;11.13;;;2.97;;
73100;SDS011;61288;53.446;-2.266;2024-01-30T02:50:12;9.38;;;3.05;;
73100;SDS011;61288;53.446;-2.266;2024-01-30T02:52:40;7.85;;;2.40;;
73100;SDS011;61288;53.446;-2.266;2024-01-30T02:55:06;7.90;;;2.35;;
73100;SDS011;61288;53.446;-2.266;2024-01-30T02:57:32;9.77;;;2.50;;
73100;SDS011;61288;53.446;-2.266;2024-01-30T02:59:57;8.32;;;2.45;;
73100;SDS011;61288;53.446;-2.266;2024-01-30T03:02:23;8.05;;;2.80;;
73100;SDS011;61288;53.446;-2.266;2024-01-30T03:04:48;8.93;;;2.47;;
73100;SDS011;61288;53.446;-2.266;2024-01-30T03:07:14;8.13;;;2.53;;
73100;SDS011;61288;53.446;-2.266;2024-01-30T03:09:40;7.45;;;2.30;;
73100;SDS011;61288;53.446;-2.266;2024-01-30T03:12:08;8.70;;;2.25;;
73100;SDS011;61288;53.446;-2.266;2024-01-30T03:14:33;8.57;;;2.15;;
73100;SDS011;61288;53.446;-2.266;2024-01-30T03:17:00;10.30;;;2.75;;
73100;SDS011;61288;53.446;-2.266;2024-01-30T03:19:25;7.63;;;2.15;;
73100;SDS011;61288;53.446;-2.266;2024-01-30T03:21:51;7.82;;;1.88;;
73100;SDS011;61288;53.446;-2.266;2024-01-30T03:24:17;7.95;;;1.95;;
73100;SDS011;61288;53.446;-2.266;2024-01-30T03:26:46;6.78;;;2.25;;
73100;SDS011;61288;53.446;-2.266;2024-01-30T03:29:11;7.18;;;2.10;;
73100;SDS011;61288;53.446;-2.266;2024-01-30T03:31:37;6.82;;;2.08;;
73100;SDS011;61288;53.446;-2.266;2024-01-30T03:34:03;7.43;;;2.30;;
73100;SDS011;61288;53.446;-2.266;2024-01-30T03:36:29;7.75;;;2.00;;
73100;SDS011;61288;53.446;-2.266;2024-01-30T03:38:57;8.10;;;2.15;;
73100;SDS011;61288;53.446;-2.266;2024-01-30T03:41:23;7.47;;;1.90;;
73100;SDS011;61288;53.446;-2.266;2024-01-30T03:43:48;5.22;;;1.85;;
73100;SDS011;61288;53.446;-2.266;2024-01-30T03:46:14;7.38;;;2.03;;
73100;SDS011;61288;53.446;-2.266;2024-01-30T03:48:39;6.30;;;2.00;;
73100;SDS011;61288;53.446;-2.266;2024-01-30T03:51:05;6.82;;;1.85;;
73100;SDS011;61288;53.446;-2.266;2024-01-30T03:53:30;5.60;;;1.80;;
73100;SDS011;61288;53.446;-2.266;2024-01-30T03:55:56;6.15;;;1.90;;
73100;SDS011;61288;53.446;-2.266;2024-01-30T03:58:21;5.78;;;1.88;;
73100;SDS011;61288;53.446;-2.266;2024-01-30T04:00:47;5.85;;;1.80;;
73100;SDS011;61288;53.446;-2.266;2024-01-30T04:03:12;4.82;;;1.63;;
73100;SDS011;61288;53.446;-2.266;2024-01-30T04:05:40;7.97;;;2.05;;
73100;SDS011;61288;53.446;-2.266;2024-01-30T04:08:06;6.63;;;2.03;;
73100;SDS011;61288;53.446;-2.266;2024-01-30T04:10:32;5.18;;;1.67;;
73100;SDS011;61288;53.446;-2.266;2024-01-30T04:12:58;6.30;;;1.85;;
73100;SDS011;61288;53.446;-2.266;2024-01-30T04:15:23;5.13;;;1.67;;
73100;SDS011;61288;53.446;-2.266;2024-01-30T04:17:49;5.57;;;1.73;;
73100;SDS011;61288;53.446;-2.266;2024-01-30T04:20:14;5.90;;;1.70;;
73100;SDS011;61288;53.446;-2.266;2024-01-30T04:22:44;6.50;;;1.95;;
73100;SDS011;61288;53.446;-2.266;2024-01-30T04:25:10;6.03;;;2.17;;
73100;SDS011;61288;53.446;-2.266;2024-01-30T04:27:37;4.05;;;1.60;;
73100;SDS011;61288;53.446;-2.266;2024-01-30T04:30:03;6.50;;;1.83;;
73100;SDS011;61288;53.446;-2.266;2024-01-30T04:32:29;5.15;;;1.58;;
73100;SDS011;61288;53.446;-2.266;2024-01-30T04:34:55;5.00;;;1.60;;
73100;SDS011;61288;53.446;-2.266;2024-01-30T04:37:22;5.43;;;1.92;;
73100;SDS011;61288;53.446;-2.266;2024-01-30T04:39:48;5.07;;;1.40;;
73100;SDS011;61288;53.446;-2.266;2024-01-30T04:42:14;3.22;;;1.40;;
73100;SDS011;61288;53.446;-2.266;2024-01-30T04:44:39;4.15;;;1.50;;
73100;SDS011;61288;53.446;-2.266;2024-01-30T04:47:05;4.13;;;1.30;;
73100;SDS011;61288;53.446;-2.266;2024-01-30T04:49:34;4.20;;;1.30;;
73100;SDS011;61288;53.446;-2.266;2024-01-30T04:51:59;4.68;;;1.45;;
73100;SDS011;61288;53.446;-2.266;2024-01-30T04:54:25;4.30;;;1.33;;
73100;SDS011;61288;53.446;-2.266;2024-01-30T04:56:51;4.35;;;1.40;;
73100;SDS011;61288;53.446;-2.266;2024-01-30T04:59:16;4.90;;;1.60;;
73100;SDS011;61288;53.446;-2.266;2024-01-30T05:01:41;5.85;;;1.65;;
73100;SDS011;61288;53.446;-2.266;2024-01-30T05:04:07;5.15;;;1.73;;
73100;SDS011;61288;53.446;-2.266;2024-01-30T05:06:34;7.88;;;1.90;;
73100;SDS011;61288;53.446;-2.266;2024-01-30T05:08:59;8.30;;;1.95;;
73100;SDS011;61288;53.446;-2.266;2024-01-30T05:11:25;8.02;;;2.47;;
73100;SDS011;61288;53.446;-2.266;2024-01-30T05:13:53;7.90;;;2.10;;
73100;SDS011;61288;53.446;-2.266;2024-01-30T05:16:18;11.52;;;3.10;;
73100;SDS011;61288;53.446;-2.266;2024-01-30T05:18:44;8.40;;;2.20;;
73100;SDS011;61288;53.446;-2.266;2024-01-30T05:21:10;9.90;;;2.97;;
73100;SDS011;61288;53.446;-2.266;2024-01-30T05:23:35;8.52;;;2.45;;
73100;SDS011;61288;53.446;-2.266;2024-01-30T05:26:01;8.85;;;3.13;;
73100;SDS011;61288;53.446;-2.266;2024-01-30T05:28:31;8.50;;;2.63;;
73100;SDS011;61288;53.446;-2.266;2024-01-30T05:30:57;8.52;;;2.75;;
73100;SDS011;61288;53.446;-2.266;2024-01-30T05:33:23;8.63;;;3.15;;
73100;SDS011;61288;53.446;-2.266;2024-01-30T05:35:48;9.07;;;3.03;;
73100;SDS011;61288;53.446;-2.266;2024-01-30T05:38:15;8.02;;;2.60;;
73100;SDS011;61288;53.446;-2.266;2024-01-30T05:40:41;8.50;;;2.78;;
73100;SDS011;61288;53.446;-2.266;2024-01-30T05:43:07;7.53;;;2.83;;
73100;SDS011;61288;53.446;-2.266;2024-01-30T05:45:33;8.40;;;2.60;;
73100;SDS011;61288;53.446;-2.266;2024-01-30T05:48:00;8.30;;;2.55;;
73100;SDS011;61288;53.446;-2.266;2024-01-30T05:50:25;8.68;;;2.85;;
73100;SDS011;61288;53.446;-2.266;2024-01-30T05:52:51;7.18;;;2.38;;
73100;SDS011;61288;53.446;-2.266;2024-01-30T05:55:17;7.38;;;2.72;;
73100;SDS011;61288;53.446;-2.266;2024-01-30T05:57:43;7.43;;;2.40;;
73100;SDS011;61288;53.446;-2.266;2024-01-30T06:00:08;6.07;;;2.42;;
73100;SDS011;61288;53.446;-2.266;2024-01-30T06:02:34;7.65;;;2.50;;
73100;SDS011;61288;53.446;-2.266;2024-01-30T06:04:59;6.93;;;2.22;;
73100;SDS011;61288;53.446;-2.266;2024-01-30T06:07:25;7.20;;;2.40;;
73100;SDS011;61288;53.446;-2.266;2024-01-30T06:09:50;7.07;;;2.40;;
73100;SDS011;61288;53.446;-2.266;2024-01-30T06:12:15;7.45;;;2.20;;
73100;SDS011;61288;53.446;-2.266;2024-01-30T06:14:41;6.47;;;1.90;;
73100;SDS011;61288;53.446;-2.266;2024-01-30T06:17:07;6.78;;;2.22;;
73100;SDS011;61288;53.446;-2.266;2024-01-30T06:19:34;5.53;;;1.80;;
73100;SDS011;61288;53.446;-2.266;2024-01-30T06:21:59;6.70;;;2.20;;
73100;SDS011;61288;53.446;-2.266;2024-01-30T06:24:25;7.07;;;2.00;;
73100;SDS011;61288;53.446;-2.266;2024-01-30T06:26:52;8.02;;;2.22;;
73100;SDS011;61288;53.446;-2.266;2024-01-30T06:29:18;8.60;;;2.20;;
73100;SDS011;61288;53.446;-2.266;2024-01-30T06:31:44;6.43;;;2.13;;
73100;SDS011;61288;53.446;-2.266;2024-01-30T06:34:09;5.95;;;1.92;;
73100;SDS011;61288;53.446;-2.266;2024-01-30T06:36:36;6.38;;;2.35;;
73100;SDS011;61288;53.446;-2.266;2024-01-30T06:39:03;7.20;;;2.33;;
73100;SDS011;61288;53.446;-2.266;2024-01-30T06:41:29;6.45;;;2.20;;
73100;SDS011;61288;53.446;-2.266;2024-01-30T06:43:55;7.53;;;2.22;;
73100;SDS011;61288;53.446;-2.266;2024-01-30T06:46:21;7.10;;;2.20;;
73100;SDS011;61288;53.446;-2.266;2024-01-30T06:48:47;6.93;;;2.20;;
73100;SDS011;61288;53.446;-2.266;2024-01-30T06:51:12;8.50;;;2.50;;
73100;SDS011;61288;53.446;-2.266;2024-01-30T06:53:38;7.00;;;2.40;;
73100;SDS011;61288;53.446;-2.266;2024-01-30T06:56:04;6.80;;;2.15;;
73100;SDS011;61288;53.446;-2.266;2024-01-30T06:58:29;6.93;;;2.33;;
73100;SDS011;61288;53.446;-2.266;2024-01-30T07:00:55;7.30;;;2.42;;
73100;SDS011;61288;53.446;-2.266;2024-01-30T07:03:21;6.95;;;2.35;;
73100;SDS011;61288;53.446;-2.266;2024-01-30T07:05:46;9.02;;;2.70;;
73100;SDS011;61288;53.446;-2.266;2024-01-30T07:08:12;7.40;;;2.42;;
73100;SDS011;61288;53.446;-2.266;2024-01-30T07:10:37;7.35;;;2.58;;
73100;SDS011;61288;53.446;-2.266;2024-01-30T07:13:03;8.15;;;2.72;;
73100;SDS011;61288;53.446;-2.266;2024-01-30T07:15:30;7.78;;;2.75;;
73100;SDS011;61288;53.446;-2.266;2024-01-30T07:17:56;7.93;;;2.50;;
73100;SDS011;61288;53.446;-2.266;2024-01-30T07:20:21;8.10;;;2.70;;
73100;SDS011;61288;53.446;-2.266;2024-01-30T07:22:47;7.97;;;2.40;;
73100;SDS011;61288;53.446;-2.266;2024-01-30T07:25:13;8.35;;;2.55;;
73100;SDS011;61288;53.446;-2.266;2024-01-30T07:27:38;7.53;;;2.47;;
73100;SDS011;61288;53.446;-2.266;2024-01-30T07:30:04;7.22;;;2.40;;
73100;SDS011;61288;53.446;-2.266;2024-01-30T07:32:30;8.98;;;3.05;;
73100;SDS011;61288;53.446;-2.266;2024-01-30T07:34:56;8.23;;;2.75;;
73100;SDS011;61288;53.446;-2.266;2024-01-30T07:37:22;8.25;;;2.80;;
73100;SDS011;61288;53.446;-2.266;2024-01-30T07:39:47;9.63;;;2.95;;
73100;SDS011;61288;53.446;-2.266;2024-01-30T07:42:13;9.30;;;2.60;;
73100;SDS011;61288;53.446;-2.266;2024-01-30T07:44:38;8.52;;;2.78;;
73100;SDS011;61288;53.446;-2.266;2024-01-30T07:47:04;8.73;;;2.80;;
73100;SDS011;61288;53.446;-2.266;2024-01-30T07:49:30;8.13;;;2.42;;
73100;SDS011;61288;53.446;-2.266;2024-01-30T07:51:55;7.90;;;2.67;;
73100;SDS011;61288;53.446;-2.266;2024-01-30T07:54:21;8.77;;;2.95;;
73100;SDS011;61288;53.446;-2.266;2024-01-30T07:56:46;9.13;;;2.85;;
73100;SDS011;61288;53.446;-2.266;2024-01-30T07:59:12;9.10;;;3.22;;
73100;SDS011;61288;53.446;-2.266;2024-01-30T08:01:38;7.35;;;2.90;;
73100;SDS011;61288;53.446;-2.266;2024-01-30T08:04:03;8.38;;;3.13;;
73100;SDS011;61288;53.446;-2.266;2024-01-30T08:06:29;8.63;;;3.25;;
73100;SDS011;61288;53.446;-2.266;2024-01-30T08:08:54;7.85;;;3.22;;
73100;SDS011;61288;53.446;-2.266;2024-01-30T08:11:20;7.95;;;2.97;;
73100;SDS011;61288;53.446;-2.266;2024-01-30T08:13:51;8.23;;;3.22;;
73100;SDS011;61288;53.446;-2.266;2024-01-30T08:16:17;7.72;;;2.90;;
73100;SDS011;61288;53.446;-2.266;2024-01-30T08:18:43;9.13;;;3.63;;
73100;SDS011;61288;53.446;-2.266;2024-01-30T08:21:08;8.32;;;3.20;;
73100;SDS011;61288;53.446;-2.266;2024-01-30T08:23:34;8.75;;;3.38;;
73100;SDS011;61288;53.446;-2.266;2024-01-30T08:26:00;11.07;;;3.67;;
73100;SDS011;61288;53.446;-2.266;2024-01-30T08:28:26;10.68;;;3.83;;
73100;SDS011;61288;53.446;-2.266;2024-01-30T08:30:51;9.63;;;3.90;;
73100;SDS011;61288;53.446;-2.266;2024-01-30T08:33:17;10.88;;;3.72;;
73100;SDS011;61288;53.446;-2.266;2024-01-30T08:35:42;8.63;;;3.40;;
73100;SDS011;61288;53.446;-2.266;2024-01-30T08:38:08;11.43;;;3.63;;
73100;SDS011;61288;53.446;-2.266;2024-01-30T08:40:33;9.30;;;3.83;;
73100;SDS011;61288;53.446;-2.266;2024-01-30T08:43:00;12.45;;;3.70;;
73100;SDS011;61288;53.446;-2.266;2024-01-30T08:45:25;7.97;;;3.13;;
73100;SDS011;61288;53.446;-2.266;2024-01-30T08:47:51;10.25;;;3.05;;
73100;SDS011;61288;53.446;-2.266;2024-01-30T08:50:16;6.82;;;2.50;;
73100;SDS011;61288;53.446;-2.266;2024-01-30T08:52:42;7.05;;;2.80;;
73100;SDS011;61288;53.446;-2.266;2024-01-30T08:55:07;5.28;;;2.28;;
73100;SDS011;61288;53.446;-2.266;2024-01-30T08:57:33;5.93;;;2.20;;
73100;SDS011;61288;53.446;-2.266;2024-01-30T08:59:58;6.70;;;2.53;;
73100;SDS011;61288;53.446;-2.266;2024-01-30T09:02:25;6.45;;;2.22;;
73100;SDS011;61288;53.446;-2.266;2024-01-30T09:04:50;5.72;;;2.13;;
73100;SDS011;61288;53.446;-2.266;2024-01-30T09:07:16;6.65;;;2.67;;
73100;SDS011;61288;53.446;-2.266;2024-01-30T09:09:41;6.90;;;2.50;;
73100;SDS011;61288;53.446;-2.266;2024-01-30T09:12:07;5.85;;;2.40;;
73100;SDS011;61288;53.446;-2.266;2024-01-30T09:14:35;5.57;;;2.10;;
73100;SDS011;61288;53.446;-2.266;2024-01-30T09:17:01;5.93;;;2.35;;
73100;SDS011;61288;53.446;-2.266;2024-01-30T09:19:30;5.10;;;1.95;;
73100;SDS011;61288;53.446;-2.266;2024-01-30T09:21:56;4.70;;;1.77;;
73100;SDS011;61288;53.446;-2.266;2024-01-30T09:24:21;4.45;;;1.90;;
73100;SDS011;61288;53.446;-2.266;2024-01-30T09:26:47;4.85;;;1.90;;
73100;SDS011;61288;53.446;-2.266;2024-01-30T09:29:12;5.25;;;2.00;;
73100;SDS011;61288;53.446;-2.266;2024-01-30T09:31:38;3.20;;;1.70;;
73100;SDS011;61288;53.446;-2.266;2024-01-30T09:34:03;5.47;;;1.65;;
73100;SDS011;61288;53.446;-2.266;2024-01-30T09:36:28;6.85;;;1.80;;
73100;SDS011;61288;53.446;-2.266;2024-01-30T09:38:54;4.95;;;1.60;;
73100;SDS011;61288;53.446;-2.266;2024-01-30T09:41:19;4.60;;;1.65;;
73100;SDS011;61288;53.446;-2.266;2024-01-30T09:43:48;5.38;;;1.55;;
73100;SDS011;61288;53.446;-2.266;2024-01-30T09:46:16;5.82;;;1.50;;
73100;SDS011;61288;53.446;-2.266;2024-01-30T09:48:45;3.28;;;1.30;;
73100;SDS011;61288;53.446;-2.266;2024-01-30T09:51:11;3.33;;;1.38;;
73100;SDS011;61288;53.446;-2.266;2024-01-30T09:53:40;3.13;;;1.30;;
73100;SDS011;61288;53.446;-2.266;2024-01-30T09:56:07;3.63;;;1.50;;
73100;SDS011;61288;53.446;-2.266;2024-01-30T09:58:32;3.38;;;1.50;;
73100;SDS011;61288;53.446;-2.266;2024-01-30T10:00:58;3.05;;;1.30;;
73100;SDS011;61288;53.446;-2.266;2024-01-30T10:03:25;3.75;;;1.40;;
73100;SDS011;61288;53.446;-2.266;2024-01-30T10:05:51;3.13;;;1.40;;
73100;SDS011;61288;53.446;-2.266;2024-01-30T10:08:17;3.67;;;1.50;;
73100;SDS011;61288;53.446;-2.266;2024-01-30T10:10:49;3.92;;;1.52;;
73100;SDS011;61288;53.446;-2.266;2024-01-30T10:13:15;5.03;;;1.52;;
73100;SDS011;61288;53.446;-2.266;2024-01-30T10:15:41;4.80;;;1.60;;
73100;SDS011;61288;53.446;-2.266;2024-01-30T10:18:08;3.03;;;1.70;;
73100;SDS011;61288;53.446;-2.266;2024-01-30T10:20:36;1.27;;;0.82;;
73100;SDS011;61288;53.446;-2.266;2024-01-30T10:23:02;2.13;;;0.80;;
73100;SDS011;61288;53.446;-2.266;2024-01-30T10:25:28;1.60;;;0.60;;
73100;SDS011;61288;53.446;-2.266;2024-01-30T10:27:54;1.05;;;0.90;;
73100;SDS011;61288;53.446;-2.266;2024-01-30T10:30:23;0.80;;;0.77;;
73100;SDS011;61288;53.446;-2.266;2024-01-30T10:32:49;1.23;;;0.60;;
73100;SDS011;61288;53.446;-2.266;2024-01-30T10:35:16;0.45;;;0.43;;
73100;SDS011;61288;53.446;-2.266;2024-01-30T10:37:46;1.00;;;0.70;;
73100;SDS011;61288;53.446;-2.266;2024-01-30T10:40:13;8.05;;;1.27;;
73100;SDS011;61288;53.446;-2.266;2024-01-30T10:42:41;6.97;;;1.20;;
73100;SDS011;61288;53.446;-2.266;2024-01-30T10:47:35;1.27;;;0.70;;
73100;SDS011;61288;53.446;-2.266;2024-01-30T10:50:04;1.42;;;0.70;;
73100;SDS011;61288;53.446;-2.266;2024-01-30T10:52:30;1.70;;;0.80;;
73100;SDS011;61288;53.446;-2.266;2024-01-30T10:54:57;1.60;;;0.90;;
73100;SDS011;61288;53.446;-2.266;2024-01-30T10:57:23;3.00;;;1.08;;
73100;SDS011;61288;53.446;-2.266;2024-01-30T10:59:51;1.95;;;1.10;;
73100;SDS011;61288;53.446;-2.266;2024-01-30T11:02:20;2.28;;;0.80;;
73100;SDS011;61288;53.446;-2.266;2024-01-30T11:04:48;2.85;;;1.00;;
73100;SDS011;61288;53.446;-2.266;2024-01-30T11:07:17;1.35;;;1.00;;
73100;SDS011;61288;53.446;-2.266;2024-01-30T11:09:49;2.92;;;1.20;;
73100;SDS011;61288;53.446;-2.266;2024-01-30T11:12:16;2.05;;;0.90;;
73100;SDS011;61288;53.446;-2.266;2024-01-30T11:14:41;2.83;;;1.30;;
73100;SDS011;61288;53.446;-2.266;2024-01-30T11:17:09;2.58;;;1.00;;
73100;SDS011;61288;53.446;-2.266;2024-01-30T11:19:37;4.03;;;1.13;;
73100;SDS011;61288;53.446;-2.266;2024-01-30T11:22:06;2.05;;;1.10;;
73100;SDS011;61288;53.446;-2.266;2024-01-30T11:24:36;2.40;;;0.95;;
73100;SDS011;61288;53.446;-2.266;2024-01-30T11:27:07;1.55;;;1.20;;
73100;SDS011;61288;53.446;-2.266;2024-01-30T11:29:34;2.17;;;1.00;;
73100;SDS011;61288;53.446;-2.266;2024-01-30T11:32:00;3.17;;;1.10;;
73100;SDS011;61288;53.446;-2.266;2024-01-30T11:34:25;3.05;;;1.30;;
73100;SDS011;61288;53.446;-2.266;2024-01-30T11:36:52;2.65;;;1.08;;
73100;SDS011;61288;53.446;-2.266;2024-01-30T11:39:24;1.52;;;1.00;;
73100;SDS011;61288;53.446;-2.266;2024-01-30T11:41:52;2.60;;;1.23;;
73100;SDS011;61288;53.446;-2.266;2024-01-30T11:44:21;1.75;;;1.30;;
73100;SDS011;61288;53.446;-2.266;2024-01-30T11:46:50;1.75;;;1.00;;
73100;SDS011;61288;53.446;-2.266;2024-01-30T11:49:17;2.00;;;1.20;;
73100;SDS011;61288;53.446;-2.266;2024-01-30T11:51:43;3.63;;;1.23;;
73100;SDS011;61288;53.446;-2.266;2024-01-30T11:54:11;3.47;;;1.17;;
73100;SDS011;61288;53.446;-2.266;2024-01-30T11:56:38;7.57;;;1.60;;
73100;SDS011;61288;53.446;-2.266;2024-01-30T11:59:04;9.88;;;2.28;;
73100;SDS011;61288;53.446;-2.266;2024-01-30T12:01:30;2.75;;;1.00;;
73100;SDS011;61288;53.446;-2.266;2024-01-30T12:03:56;1.83;;;1.00;;
73100;SDS011;61288;53.446;-2.266;2024-01-30T12:06:23;3.78;;;0.90;;
73100;SDS011;61288;53.446;-2.266;2024-01-30T12:08:58;1.55;;;0.95;;
73100;SDS011;61288;53.446;-2.266;2024-01-30T12:13:56;2.40;;;1.00;;
73100;SDS011;61288;53.446;-2.266;2024-01-30T12:16:22;3.30;;;1.15;;
73100;SDS011;61288;53.446;-2.266;2024-01-30T12:18:48;2.30;;;1.13;;
73100;SDS011;61288;53.446;-2.266;2024-01-30T12:21:17;3.58;;;1.13;;
73100;SDS011;61288;53.446;-2.266;2024-01-30T12:23:43;4.68;;;1.33;;
73100;SDS011;61288;53.446;-2.266;2024-01-30T12:26:10;2.50;;;1.20;;
73100;SDS011;61288;53.446;-2.266;2024-01-30T12:28:36;3.42;;;1.33;;
73100;SDS011;61288;53.446;-2.266;2024-01-30T12:31:02;2.00;;;1.10;;
73100;SDS011;61288;53.446;-2.266;2024-01-30T12:33:28;3.03;;;1.10;;
73100;SDS011;61288;53.446;-2.266;2024-01-30T12:35:55;2.22;;;1.08;;
73100;SDS011;61288;53.446;-2.266;2024-01-30T12:38:22;3.88;;;1.20;;
73100;SDS011;61288;53.446;-2.266;2024-01-30T12:40:49;1.65;;;1.00;;
73100;SDS011;61288;53.446;-2.266;2024-01-30T12:43:14;3.10;;;1.35;;
73100;SDS011;61288;53.446;-2.266;2024-01-30T12:45:41;4.95;;;1.35;;
73100;SDS011;61288;53.446;-2.266;2024-01-30T12:48:07;3.72;;;1.50;;
73100;SDS011;61288;53.446;-2.266;2024-01-30T12:50:32;5.45;;;1.38;;
73100;SDS011;61288;53.446;-2.266;2024-01-30T12:52:58;7.57;;;1.95;;
73100;SDS011;61288;53.446;-2.266;2024-01-30T12:55:24;5.80;;;1.42;;
73100;SDS011;61288;53.446;-2.266;2024-01-30T12:57:50;4.43;;;1.20;;
73100;SDS011;61288;53.446;-2.266;2024-01-30T13:00:16;2.60;;;0.98;;
73100;SDS011;61288;53.446;-2.266;2024-01-30T13:02:42;3.20;;;1.20;;
73100;SDS011;61288;53.446;-2.266;2024-01-30T13:05:09;3.15;;;1.10;;
73100;SDS011;61288;53.446;-2.266;2024-01-30T13:07:35;4.57;;;1.00;;
73100;SDS011;61288;53.446;-2.266;2024-01-30T13:10:01;3.92;;;0.90;;
73100;SDS011;61288;53.446;-2.266;2024-01-30T13:12:29;2.15;;;0.88;;
73100;SDS011;61288;53.446;-2.266;2024-01-30T13:14:55;6.63;;;0.85;;
73100;SDS011;61288;53.446;-2.266;2024-01-30T13:17:20;3.60;;;1.13;;
73100;SDS011;61288;53.446;-2.266;2024-01-30T13:19:46;4.57;;;1.15;;
73100;SDS011;61288;53.446;-2.266;2024-01-30T13:22:13;2.67;;;0.98;;
73100;SDS011;61288;53.446;-2.266;2024-01-30T13:24:39;3.65;;;0.90;;
73100;SDS011;61288;53.446;-2.266;2024-01-30T13:27:04;2.20;;;1.00;;
73100;SDS011;61288;53.446;-2.266;2024-01-30T13:29:32;3.38;;;1.23;;
73100;SDS011;61288;53.446;-2.266;2024-01-30T13:31:58;2.25;;;1.30;;
73100;SDS011;61288;53.446;-2.266;2024-01-30T13:34:23;3.47;;;0.85;;
73100;SDS011;61288;53.446;-2.266;2024-01-30T13:36:50;7.57;;;1.00;;
73100;SDS011;61288;53.446;-2.266;2024-01-30T13:39:16;2.75;;;1.00;;
73100;SDS011;61288;53.446;-2.266;2024-01-30T13:41:41;5.25;;;1.00;;
73100;SDS011;61288;53.446;-2.266;2024-01-30T13:44:07;5.32;;;1.27;;
73100;SDS011;61288;53.446;-2.266;2024-01-30T13:46:34;3.95;;;1.02;;
73100;SDS011;61288;53.446;-2.266;2024-01-30T13:49:00;5.38;;;1.25;;
73100;SDS011;61288;53.446;-2.266;2024-01-30T13:51:25;5.38;;;0.90;;
73100;SDS011;61288;53.446;-2.266;2024-01-30T13:53:51;3.33;;;1.00;;
73100;SDS011;61288;53.446;-2.266;2024-01-30T13:56:17;3.13;;;1.23;;
73100;SDS011;61288;53.446;-2.266;2024-01-30T13:58:42;2.72;;;1.10;;
73100;SDS011;61288;53.446;-2.266;2024-01-30T14:01:07;3.13;;;1.10;;
73100;SDS011;61288;53.446;-2.266;2024-01-30T14:03:35;6.22;;;1.00;;
73100;SDS011;61288;53.446;-2.266;2024-01-30T14:06:00;2.63;;;1.00;;
73100;SDS011;61288;53.446;-2.266;2024-01-30T14:08:26;2.55;;;0.93;;
73100;SDS011;61288;53.446;-2.266;2024-01-30T14:10:53;5.32;;;1.23;;
73100;SDS011;61288;53.446;-2.266;2024-01-30T14:13:22;3.50;;;1.20;;
73100;SDS011;61288;53.446;-2.266;2024-01-30T14:15:49;5.05;;;1.20;;
73100;SDS011;61288;53.446;-2.266;2024-01-30T14:18:14;4.63;;;0.82;;
73100;SDS011;61288;53.446;-2.266;2024-01-30T14:20:41;6.30;;;1.00;;
73100;SDS011;61288;53.446;-2.266;2024-01-30T14:23:06;3.80;;;0.98;;
73100;SDS011;61288;53.446;-2.266;2024-01-30T14:25:32;6.53;;;1.42;;
73100;SDS011;61288;53.446;-2.266;2024-01-30T14:27:57;7.65;;;1.20;;
73100;SDS011;61288;53.446;-2.266;2024-01-30T14:30:23;4.15;;;1.33;;
73100;SDS011;61288;53.446;-2.266;2024-01-30T14:32:48;4.32;;;1.17;;